createdAt,value
2023-03-15T00:01:21.189Z,2.81
2023-03-15T00:03:49.159Z,2.76
2023-03-15T00:06:16.802Z,2.76
2023-03-15T00:08:48.015Z,2.85
2023-03-15T00:11:19.107Z,2.92
2023-03-15T00:13:46.974Z,2.92
2023-03-15T00:16:18.985Z,2.88
2023-03-15T00:18:47.595Z,2.83
2023-03-15T00:21:15.701Z,2.86
2023-03-15T00:23:43.434Z,2.85
2023-03-15T00:26:17.092Z,2.86
2023-03-15T00:28:44.915Z,2.79
2023-03-15T00:31:20.855Z,2.81
2023-03-15T00:33:49.089Z,2.78
2023-03-15T00:36:16.911Z,2.79
2023-03-15T00:38:47.129Z,2.75
2023-03-15T00:41:21.865Z,2.66
2023-03-15T00:43:49.504Z,2.68
2023-03-15T00:46:18.370Z,2.65
2023-03-15T00:48:51.420Z,2.63
2023-03-15T00:51:21.843Z,2.64
2023-03-15T00:53:52.671Z,2.68
2023-03-15T00:56:23.731Z,2.67
2023-03-15T00:58:53.266Z,2.65
2023-03-15T01:01:23.533Z,2.76
2023-03-15T01:03:51.664Z,2.77
2023-03-15T01:06:24.459Z,2.76
2023-03-15T01:08:56.215Z,2.79
2023-03-15T01:11:27.493Z,2.75
2023-03-15T01:13:57.493Z,2.81
2023-03-15T01:16:26.204Z,2.83
2023-03-15T01:18:54.397Z,2.80
2023-03-15T01:21:23.352Z,2.81
2023-03-15T01:23:51.278Z,2.80
2023-03-15T01:26:19.141Z,2.83
2023-03-15T01:28:48.033Z,2.85
2023-03-15T01:31:21.673Z,2.85
2023-03-15T01:33:49.528Z,2.84
2023-03-15T01:36:16.872Z,2.77
2023-03-15T01:38:50.052Z,2.88
2023-03-15T01:41:19.354Z,2.86
2023-03-15T01:43:49.622Z,2.83
2023-03-15T01:46:34.780Z,2.74
2023-03-15T01:49:25.911Z,2.72
2023-03-15T01:52:19.583Z,2.69
2023-03-15T01:55:02.874Z,2.55
2023-03-15T01:57:46.090Z,2.66
2023-03-15T02:00:15.901Z,2.67
2023-03-15T02:02:52.193Z,2.55
2023-03-15T02:05:26.464Z,2.66
2023-03-15T02:07:55.188Z,2.30
2023-03-15T02:10:44.323Z,2.22
2023-03-15T02:13:15.219Z,2.28
2023-03-15T02:15:47.016Z,2.30
2023-03-15T02:18:17.700Z,2.32
2023-03-15T02:21:10.887Z,2.40
2023-03-15T02:23:39.463Z,2.31
2023-03-15T02:26:26.284Z,2.35
2023-03-15T02:28:54.656Z,2.38
2023-03-15T02:31:22.584Z,2.45
2023-03-15T02:33:52.655Z,2.38
2023-03-15T02:36:26.266Z,2.33
2023-03-15T02:38:56.054Z,2.26
2023-03-15T02:41:37.007Z,2.28
2023-03-15T02:44:27.234Z,2.13
2023-03-15T02:47:03.148Z,2.13
2023-03-15T02:49:33.320Z,2.17
2023-03-15T02:52:00.773Z,2.27
2023-03-15T02:54:28.103Z,2.32
2023-03-15T02:56:55.598Z,2.27
2023-03-15T02:59:23.080Z,2.29
2023-03-15T03:01:51.491Z,2.25
2023-03-15T03:04:19.415Z,2.24
2023-03-15T03:06:46.539Z,2.23
2023-03-15T03:09:14.104Z,2.25
2023-03-15T03:11:42.355Z,2.22
2023-03-15T03:14:10.002Z,2.20
2023-03-15T03:16:37.302Z,2.29
2023-03-15T03:19:05.947Z,2.22
2023-03-15T03:21:34.308Z,2.20
2023-03-15T03:24:02.045Z,2.22
2023-03-15T03:26:32.990Z,2.22
2023-03-15T03:29:02.284Z,2.19
2023-03-15T03:31:34.093Z,2.15
2023-03-15T03:34:03.553Z,2.15
2023-03-15T03:36:31.816Z,2.14
2023-03-15T03:38:59.716Z,2.15
2023-03-15T03:41:28.331Z,2.08
2023-03-15T03:43:55.685Z,2.06
2023-03-15T03:46:24.263Z,2.04
2023-03-15T03:48:51.733Z,2.03
2023-03-15T03:51:19.162Z,2.10
2023-03-15T03:53:48.675Z,2.08
2023-03-15T03:56:16.203Z,2.05
2023-03-15T03:58:49.699Z,2.04
2023-03-15T04:01:17.571Z,1.99
2023-03-15T04:03:45.214Z,1.90
2023-03-15T04:06:12.357Z,1.95
2023-03-15T04:08:39.478Z,1.93
2023-03-15T04:11:07.778Z,1.97
2023-03-15T04:13:34.945Z,1.93
2023-03-15T04:16:04.192Z,1.96
2023-03-15T04:18:33.407Z,1.93
2023-03-15T04:21:00.877Z,1.86
2023-03-15T04:23:29.318Z,1.88
2023-03-15T04:25:58.239Z,1.80
2023-03-15T04:28:25.910Z,1.85
2023-03-15T04:31:02.054Z,1.77
2023-03-15T04:33:29.682Z,1.82
2023-03-15T04:35:58.236Z,1.82
2023-03-15T04:38:27.459Z,1.82
2023-03-15T04:40:55.618Z,1.82
2023-03-15T04:43:25.140Z,1.78
2023-03-15T04:45:58.765Z,1.75
2023-03-15T04:48:28.128Z,1.66
2023-03-15T04:50:55.565Z,1.82
2023-03-15T04:53:35.081Z,1.76
2023-03-15T04:56:04.734Z,1.71
2023-03-15T04:58:32.331Z,1.67
2023-03-15T05:00:59.969Z,1.70
2023-03-15T05:03:27.475Z,1.68
2023-03-15T05:05:54.589Z,1.59
2023-03-15T05:08:22.816Z,1.59
2023-03-15T05:10:50.271Z,1.56
2023-03-15T05:13:19.250Z,1.53
2023-03-15T05:15:46.665Z,1.50
2023-03-15T05:18:14.573Z,1.56
2023-03-15T05:20:42.104Z,1.50
2023-03-15T05:23:09.182Z,1.48
2023-03-15T05:25:38.733Z,1.56
2023-03-15T05:28:07.151Z,1.54
2023-03-15T05:30:41.404Z,1.55
2023-03-15T05:33:08.662Z,1.52
2023-03-15T05:35:36.027Z,1.49
2023-03-15T05:38:04.581Z,1.55
2023-03-15T05:40:33.407Z,1.54
2023-03-15T05:43:00.725Z,1.54
2023-03-15T05:45:28.961Z,1.55
2023-03-15T05:47:56.789Z,1.56
2023-03-15T05:50:24.964Z,1.52
2023-03-15T05:52:52.493Z,1.48
2023-03-15T05:55:19.773Z,1.45
2023-03-15T05:57:47.223Z,1.53
2023-03-15T06:00:15.512Z,1.60
2023-03-15T06:02:45.333Z,1.57
2023-03-15T06:05:18.922Z,1.56
2023-03-15T06:07:46.630Z,1.55
2023-03-15T06:10:14.478Z,1.53
2023-03-15T06:12:54.093Z,1.59
2023-03-15T06:15:21.548Z,1.62
2023-03-15T06:17:49.595Z,1.63
2023-03-15T06:20:17.143Z,1.62
2023-03-15T06:22:45.438Z,1.76
2023-03-15T06:25:14.053Z,1.82
2023-03-15T06:27:41.353Z,1.84
2023-03-15T06:30:09.509Z,1.88
2023-03-15T06:32:38.862Z,1.85
2023-03-15T06:35:07.658Z,1.94
2023-03-15T06:37:36.478Z,1.97
2023-03-15T06:40:08.244Z,1.95
2023-03-15T06:42:36.327Z,1.99
2023-03-15T06:45:04.367Z,1.96
2023-03-15T06:47:33.180Z,2.05
2023-03-15T06:50:00.413Z,2.15
2023-03-15T06:52:34.309Z,2.11
2023-03-15T06:55:01.775Z,2.14
2023-03-15T06:57:29.352Z,2.16
2023-03-15T06:59:57.104Z,2.17
2023-03-15T07:02:24.192Z,2.22
2023-03-15T07:04:51.606Z,2.22
2023-03-15T07:07:19.098Z,2.24
2023-03-15T07:09:47.513Z,2.26
2023-03-15T07:12:15.090Z,2.36
2023-03-15T07:14:43.555Z,2.35
2023-03-15T07:17:11.106Z,2.43
2023-03-15T07:19:46.873Z,2.37
2023-03-15T07:22:23.095Z,2.46
2023-03-15T07:24:52.371Z,2.30
2023-03-15T07:27:20.932Z,2.40
2023-03-15T07:29:48.925Z,2.40
2023-03-15T07:32:17.923Z,2.38
2023-03-15T07:34:45.252Z,2.63
2023-03-15T07:37:12.661Z,2.64
2023-03-15T07:39:42.456Z,2.70
2023-03-15T07:42:09.930Z,2.75
2023-03-15T07:44:38.073Z,2.74
2023-03-15T07:47:12.051Z,2.81
2023-03-15T07:49:39.687Z,2.77
2023-03-15T07:52:08.526Z,2.84
2023-03-15T07:54:36.175Z,2.91
2023-03-15T07:57:03.912Z,3.00
2023-03-15T07:59:31.491Z,3.12
2023-03-15T08:02:02.805Z,3.27
2023-03-15T08:04:34.381Z,3.37
2023-03-15T08:07:04.508Z,3.58
2023-03-15T08:09:33.336Z,3.52
2023-03-15T08:12:01.711Z,3.55
2023-03-15T08:14:30.465Z,3.63
2023-03-15T08:16:57.630Z,3.49
2023-03-15T08:19:27.945Z,3.53
2023-03-15T08:21:55.270Z,3.64
2023-03-15T08:24:22.595Z,3.55
2023-03-15T08:26:56.504Z,3.56
2023-03-15T08:29:24.084Z,3.48
2023-03-15T08:31:51.554Z,3.42
2023-03-15T08:34:18.987Z,3.33
2023-03-15T08:36:49.965Z,3.39
2023-03-15T08:39:17.915Z,3.43
2023-03-15T08:41:47.630Z,3.52
2023-03-15T08:44:21.080Z,3.70
2023-03-15T08:46:50.390Z,3.86
2023-03-15T08:49:17.536Z,3.86
2023-03-15T08:51:45.117Z,3.81
2023-03-15T08:54:14.655Z,3.80
2023-03-15T08:56:42.465Z,3.88
2023-03-15T08:59:12.803Z,4.01
2023-03-15T09:01:42.032Z,4.14
2023-03-15T09:04:09.471Z,4.31
2023-03-15T09:06:36.557Z,4.37
2023-03-15T09:09:04.871Z,4.27
2023-03-15T09:11:32.236Z,4.17
2023-03-15T09:13:59.290Z,4.18
2023-03-15T09:16:26.780Z,4.42
2023-03-15T09:18:54.175Z,4.41
2023-03-15T09:21:21.837Z,4.43
2023-03-15T09:23:49.014Z,4.46
2023-03-15T09:26:16.040Z,4.28
2023-03-15T09:28:43.091Z,4.28
2023-03-15T09:31:10.466Z,4.21
2023-03-15T09:33:37.949Z,4.19
2023-03-15T09:36:05.602Z,4.36
2023-03-15T09:38:32.783Z,4.48
2023-03-15T09:41:01.048Z,4.50
2023-03-15T09:43:56.952Z,4.41
2023-03-15T09:46:29.670Z,4.30
2023-03-15T09:49:10.606Z,4.45
2023-03-15T09:51:48.379Z,4.51
2023-03-15T09:54:20.747Z,4.50
2023-03-15T09:56:55.019Z,4.53
2023-03-15T09:59:26.940Z,4.68
2023-03-15T10:01:57.145Z,4.80
2023-03-15T10:04:42.483Z,4.85
2023-03-15T10:07:16.965Z,4.67
2023-03-15T10:09:45.835Z,4.48
2023-03-15T10:12:16.902Z,4.56
2023-03-15T10:15:05.256Z,4.38
2023-03-15T10:17:53.734Z,4.42
2023-03-15T10:20:27.344Z,4.42
2023-03-15T10:23:24.156Z,4.44
2023-03-15T10:25:52.314Z,4.60
2023-03-15T10:28:31.290Z,4.65
2023-03-15T10:31:11.209Z,4.61
2023-03-15T10:33:39.980Z,4.77
2023-03-15T10:36:19.183Z,4.84
2023-03-15T10:38:50.615Z,4.93
2023-03-15T10:41:48.813Z,5.00
2023-03-15T10:44:26.970Z,5.23
2023-03-15T10:47:23.674Z,5.29
2023-03-15T10:49:58.172Z,5.29
2023-03-15T10:52:40.978Z,5.14
2023-03-15T10:55:28.154Z,5.15
2023-03-15T10:58:12.456Z,5.02
2023-03-15T11:00:48.510Z,4.93
2023-03-15T11:03:22.591Z,4.97
2023-03-15T11:05:58.376Z,5.09
2023-03-15T11:08:39.083Z,5.16
2023-03-15T11:11:07.527Z,5.36
2023-03-15T11:13:37.221Z,5.39
2023-03-15T11:16:20.024Z,5.44
2023-03-15T11:18:57.921Z,5.97
2023-03-15T11:21:33.720Z,6.29
2023-03-15T11:24:08.822Z,6.50
2023-03-15T11:26:41.247Z,6.82
2023-03-15T11:29:19.527Z,6.79
2023-03-15T11:31:47.464Z,7.18
2023-03-15T11:34:25.740Z,7.79
2023-03-15T11:37:07.901Z,8.31
2023-03-15T11:39:45.648Z,8.45
2023-03-15T11:42:20.776Z,8.16
2023-03-15T11:44:50.829Z,7.93
2023-03-15T11:47:47.441Z,7.35
2023-03-15T11:50:16.261Z,7.35
2023-03-15T11:52:48.085Z,8.14
2023-03-15T11:55:35.809Z,8.99
2023-03-15T11:58:32.015Z,9.68
2023-03-15T12:01:26.812Z,9.65
2023-03-15T12:04:33.911Z,9.33
2023-03-15T12:07:04.947Z,8.94
2023-03-15T12:09:38.000Z,8.37
2023-03-15T12:12:27.096Z,7.98
2023-03-15T12:15:15.359Z,7.32
2023-03-15T12:17:56.136Z,6.96
2023-03-15T12:20:53.717Z,6.83
2023-03-15T12:23:32.716Z,6.67
2023-03-15T12:26:07.391Z,6.46
2023-03-15T12:28:39.025Z,6.57
2023-03-15T12:31:13.335Z,6.64
2023-03-15T12:33:58.751Z,6.86
2023-03-15T12:36:41.796Z,6.61
2023-03-15T12:39:10.283Z,6.84
2023-03-15T12:41:40.967Z,6.79
2023-03-15T12:44:38.634Z,6.70
2023-03-15T12:47:08.308Z,6.74
2023-03-15T12:49:40.462Z,6.75
2023-03-15T12:52:27.814Z,6.91
2023-03-15T12:55:06.314Z,7.23
2023-03-15T12:57:45.539Z,6.71
2023-03-15T13:00:16.032Z,6.85
2023-03-15T13:02:51.125Z,6.60
2023-03-15T13:06:01.334Z,6.73
2023-03-15T13:08:41.863Z,6.99
2023-03-15T13:11:26.150Z,7.35
2023-03-15T13:14:08.554Z,7.50
2023-03-15T13:16:43.949Z,7.37
2023-03-15T13:19:26.366Z,7.72
2023-03-15T13:22:12.724Z,7.86
2023-03-15T13:24:45.336Z,8.20
2023-03-15T13:27:38.581Z,8.36
2023-03-15T13:30:30.732Z,8.51
2023-03-15T13:33:27.862Z,8.34
2023-03-15T13:36:01.391Z,8.28
2023-03-15T13:38:37.714Z,8.17
2023-03-15T13:41:16.670Z,8.09
2023-03-15T13:43:45.285Z,8.29
2023-03-15T13:46:13.096Z,8.37
2023-03-15T13:48:47.969Z,8.52
2023-03-15T13:51:25.658Z,8.43
2023-03-15T13:53:56.361Z,7.87
2023-03-15T13:56:48.787Z,7.66
2023-03-15T13:59:17.896Z,7.68
2023-03-15T14:01:45.709Z,7.51
2023-03-15T14:04:17.712Z,7.18
2023-03-15T14:06:48.407Z,7.43
2023-03-15T14:09:26.302Z,8.30
2023-03-15T14:12:07.498Z,8.90
2023-03-15T14:14:46.729Z,8.66
2023-03-15T14:17:32.368Z,9.14
2023-03-15T14:20:09.403Z,9.73
2023-03-15T14:22:37.357Z,10.31
2023-03-15T14:25:19.388Z,10.25
2023-03-15T14:27:47.672Z,10.66
2023-03-15T14:30:24.635Z,10.19
2023-03-15T14:32:57.897Z,9.92
2023-03-15T14:35:37.624Z,9.97
2023-03-15T14:38:24.577Z,10.11
2023-03-15T14:40:54.800Z,9.50
2023-03-15T14:43:23.798Z,9.61
2023-03-15T14:45:51.275Z,9.50
2023-03-15T14:48:28.712Z,9.66
2023-03-15T14:50:56.842Z,9.79
2023-03-15T14:53:27.017Z,9.71
2023-03-15T14:55:55.364Z,9.94
2023-03-15T14:58:29.955Z,10.85
2023-03-15T15:01:01.378Z,11.71
2023-03-15T15:03:38.668Z,12.11
2023-03-15T15:06:09.323Z,12.89
2023-03-15T15:08:40.375Z,13.32
2023-03-15T15:11:09.246Z,13.69
2023-03-15T15:13:38.561Z,13.90
2023-03-15T15:16:09.022Z,13.69
2023-03-15T15:18:38.064Z,12.87
2023-03-15T15:21:33.874Z,12.82
2023-03-15T15:24:03.481Z,11.91
2023-03-15T15:26:31.945Z,11.37
2023-03-15T15:28:59.975Z,11.03
2023-03-15T15:31:28.529Z,11.01
2023-03-15T15:33:56.789Z,10.50
2023-03-15T15:36:34.963Z,10.06
2023-03-15T15:39:06.728Z,9.34
2023-03-15T15:41:35.102Z,9.23
2023-03-15T15:44:02.132Z,9.35
2023-03-15T15:46:29.475Z,9.71
2023-03-15T15:48:59.101Z,9.88
2023-03-15T15:51:28.427Z,9.68
2023-03-15T15:53:57.591Z,9.46
2023-03-15T15:56:29.315Z,9.21
2023-03-15T15:58:58.037Z,8.91
2023-03-15T16:01:32.124Z,8.42
2023-03-15T16:04:01.254Z,8.07
2023-03-15T16:06:28.731Z,7.94
2023-03-15T16:08:58.686Z,7.83
2023-03-15T16:11:32.353Z,7.73
2023-03-15T16:14:01.648Z,7.63
2023-03-15T16:16:29.038Z,7.38
2023-03-15T16:18:59.094Z,7.09
2023-03-15T16:21:34.404Z,7.02
2023-03-15T16:24:12.356Z,6.98
2023-03-15T16:26:41.098Z,6.82
2023-03-15T16:29:20.614Z,6.64
2023-03-15T16:31:48.564Z,6.58
2023-03-15T16:34:18.995Z,6.47
2023-03-15T16:36:51.181Z,6.33
2023-03-15T16:39:19.113Z,6.18
2023-03-15T16:41:47.186Z,6.10
2023-03-15T16:44:19.311Z,5.91
2023-03-15T16:46:47.679Z,5.62
2023-03-15T16:49:17.638Z,5.46
2023-03-15T16:51:49.936Z,5.34
2023-03-15T16:54:34.616Z,5.15
2023-03-15T16:57:29.001Z,4.96
2023-03-15T16:59:58.869Z,4.84
2023-03-15T17:02:31.598Z,4.80
2023-03-15T17:05:07.220Z,4.66
2023-03-15T17:07:41.376Z,4.67
2023-03-15T17:10:33.393Z,4.48
2023-03-15T17:13:09.510Z,4.09
2023-03-15T17:15:38.636Z,4.22
2023-03-15T17:18:16.201Z,4.06
2023-03-15T17:20:50.219Z,4.03
2023-03-15T17:23:21.588Z,3.83
2023-03-15T17:25:51.235Z,3.62
2023-03-15T17:28:26.374Z,3.81
2023-03-15T17:31:14.253Z,3.48
2023-03-15T17:33:47.843Z,3.49
2023-03-15T17:36:28.525Z,3.37
2023-03-15T17:38:57.128Z,2.95
2023-03-15T17:41:41.229Z,2.67
2023-03-15T17:44:14.614Z,2.35
2023-03-15T17:46:44.331Z,2.16
2023-03-15T17:49:15.365Z,2.08
2023-03-15T17:51:44.784Z,2.01
2023-03-15T17:54:20.845Z,1.94
2023-03-15T17:56:50.301Z,1.83
2023-03-15T17:59:20.154Z,1.87
2023-03-15T18:01:50.125Z,1.73
2023-03-15T18:04:22.306Z,1.57
2023-03-15T18:06:50.667Z,1.50
2023-03-15T18:09:20.002Z,1.58
2023-03-15T18:11:49.219Z,1.96
2023-03-15T18:14:19.718Z,1.94
2023-03-15T18:16:51.116Z,1.91
2023-03-15T18:19:18.857Z,2.03
2023-03-15T18:21:47.008Z,2.24
2023-03-15T18:24:21.474Z,2.34
2023-03-15T18:26:51.107Z,2.32
2023-03-15T18:29:21.289Z,2.22
2023-03-15T18:31:49.488Z,2.18
2023-03-15T18:34:19.904Z,2.16
2023-03-15T18:36:48.328Z,2.15
2023-03-15T18:39:17.678Z,2.12
2023-03-15T18:41:46.923Z,2.06
2023-03-15T18:44:15.759Z,1.92
2023-03-15T18:46:47.126Z,1.94
2023-03-15T18:49:16.387Z,1.72
2023-03-15T18:51:46.093Z,1.37
2023-03-15T18:54:15.704Z,1.41
2023-03-15T18:56:44.419Z,1.51
2023-03-15T18:59:12.965Z,1.63
2023-03-15T19:01:43.141Z,1.55
2023-03-15T19:04:17.677Z,1.30
2023-03-15T19:06:46.012Z,1.05
2023-03-15T19:09:14.592Z,1.01
2023-03-15T19:11:44.438Z,0.99
2023-03-15T19:14:12.710Z,1.16
2023-03-15T19:16:40.948Z,0.95
2023-03-15T19:19:08.829Z,0.77
2023-03-15T19:21:39.705Z,0.74
2023-03-15T19:24:08.324Z,0.78
2023-03-15T19:26:40.741Z,0.79
2023-03-15T19:29:09.341Z,0.88
2023-03-15T19:31:41.902Z,1.02
2023-03-15T19:34:11.371Z,1.00
2023-03-15T19:36:39.693Z,1.07
2023-03-15T19:39:12.812Z,1.01
2023-03-15T19:41:42.566Z,0.96
2023-03-15T19:44:11.465Z,0.87
2023-03-15T19:46:39.940Z,0.66
2023-03-15T19:49:09.924Z,0.58
2023-03-15T19:51:39.893Z,0.78
2023-03-15T19:54:10.164Z,0.59
2023-03-15T19:56:39.140Z,0.47
2023-03-15T19:59:08.917Z,0.33
2023-03-15T20:01:40.151Z,-0.01
2023-03-15T20:04:11.284Z,0.00
2023-03-15T20:06:40.197Z,0.12
2023-03-15T20:09:08.914Z,0.08
2023-03-15T20:11:37.852Z,0.14
2023-03-15T20:14:06.550Z,-0.14
2023-03-15T20:16:35.398Z,-0.33
2023-03-15T20:19:06.001Z,-0.26
2023-03-15T20:21:35.980Z,-0.34
2023-03-15T20:24:05.930Z,-0.44
2023-03-15T20:26:38.185Z,-0.35
2023-03-15T20:29:08.357Z,-0.28
2023-03-15T20:31:39.125Z,-0.41
2023-03-15T20:34:09.739Z,-0.32
2023-03-15T20:36:39.636Z,-0.29
2023-03-15T20:39:08.034Z,-0.31
2023-03-15T20:41:46.515Z,-0.42
2023-03-15T20:44:21.144Z,-0.48
2023-03-15T20:46:49.533Z,-0.41
2023-03-15T20:49:19.422Z,-0.36
2023-03-15T20:51:47.932Z,-0.27
2023-03-15T20:54:18.232Z,-0.15
2023-03-15T20:56:46.874Z,-0.01
2023-03-15T20:59:16.690Z,0.07
2023-03-15T21:01:47.837Z,0.10
2023-03-15T21:04:17.150Z,0.06
2023-03-15T21:06:45.276Z,-0.09
2023-03-15T21:09:15.672Z,-0.14
2023-03-15T21:11:45.476Z,-0.27
2023-03-15T21:14:15.379Z,-0.29
2023-03-15T21:16:45.613Z,-0.27
2023-03-15T21:19:14.772Z,-0.34
2023-03-15T21:21:45.640Z,-0.38
2023-03-15T21:24:13.976Z,-0.38
2023-03-15T21:26:44.766Z,-0.41
2023-03-15T21:29:13.198Z,-0.47
2023-03-15T21:31:41.224Z,-0.43
2023-03-15T21:34:09.284Z,-0.31
2023-03-15T21:36:37.523Z,-0.29
2023-03-15T21:39:09.111Z,-0.39
2023-03-15T21:41:38.434Z,-0.43
2023-03-15T21:44:06.228Z,-0.50
2023-03-15T21:46:34.477Z,-0.61
2023-03-15T21:49:02.542Z,-0.63
2023-03-15T21:51:34.723Z,-0.62
2023-03-15T21:54:02.240Z,-0.72
2023-03-15T21:56:35.720Z,-0.69
2023-03-15T21:59:04.193Z,-0.70
2023-03-15T22:01:31.878Z,-0.73
2023-03-15T22:03:59.517Z,-0.68
2023-03-15T22:06:26.844Z,-0.61
2023-03-15T22:08:54.189Z,-0.59
2023-03-15T22:11:23.158Z,-0.64
2023-03-15T22:13:50.768Z,-0.61
2023-03-15T22:16:18.071Z,-0.59
2023-03-15T22:18:47.476Z,-0.68
2023-03-15T22:21:14.928Z,-0.75
2023-03-15T22:23:42.457Z,-0.75
2023-03-15T22:26:11.192Z,-0.67
2023-03-15T22:28:38.544Z,-0.75
2023-03-15T22:31:12.112Z,-0.67
2023-03-15T22:33:40.749Z,-0.66
2023-03-15T22:36:08.293Z,-0.64
2023-03-15T22:38:38.297Z,-0.57
2023-03-15T22:41:10.462Z,-0.52
2023-03-15T22:43:39.230Z,-0.51
2023-03-15T22:46:07.905Z,-0.55
2023-03-15T22:48:35.630Z,-0.49
2023-03-15T22:51:06.136Z,-0.42
2023-03-15T22:53:34.815Z,-0.39
2023-03-15T22:56:02.041Z,-0.52
2023-03-15T22:58:29.765Z,-0.51
2023-03-15T23:00:56.868Z,-0.55
2023-03-15T23:03:24.655Z,-0.52
2023-03-15T23:05:51.838Z,-0.62
2023-03-15T23:08:19.426Z,-0.61
2023-03-15T23:10:46.813Z,-0.55
2023-03-15T23:13:14.954Z,-0.55
2023-03-15T23:15:43.651Z,-0.51
2023-03-15T23:18:11.099Z,-0.63
2023-03-15T23:20:38.820Z,-0.45
2023-03-15T23:23:06.010Z,-0.44
2023-03-15T23:25:38.277Z,-0.58
2023-03-15T23:28:06.869Z,-0.67
2023-03-15T23:30:36.121Z,-0.81
2023-03-15T23:33:08.158Z,-0.82
2023-03-15T23:35:35.648Z,-0.55
2023-03-15T23:38:03.325Z,-0.82
2023-03-15T23:40:30.457Z,-0.97
2023-03-15T23:43:00.561Z,-0.81
2023-03-15T23:45:30.503Z,-0.95
2023-03-15T23:47:59.047Z,-0.76
2023-03-15T23:50:27.926Z,-0.88
2023-03-15T23:52:56.534Z,-0.53
2023-03-15T23:55:24.777Z,-0.78
2023-03-15T23:57:53.210Z,-0.95
